createdAt,value
2017-07-17T00:01:40.711Z,2.70
2017-07-17T00:04:08.247Z,2.63
2017-07-17T00:06:35.716Z,2.97
2017-07-17T00:09:03.254Z,1.77
2017-07-17T00:11:30.745Z,2.80
2017-07-17T00:13:58.233Z,3.80
2017-07-17T00:16:25.731Z,2.13
2017-07-17T00:18:53.232Z,5.60
2017-07-17T00:21:20.734Z,4.27
2017-07-17T00:23:48.244Z,2.63
2017-07-17T00:26:15.731Z,3.23
2017-07-17T00:28:44.005Z,7.50
2017-07-17T00:31:12.427Z,2.30
2017-07-17T00:33:39.909Z,3.80
2017-07-17T00:36:07.410Z,3.33
2017-07-17T00:38:35.713Z,4.03
2017-07-17T00:41:03.200Z,1.87
2017-07-17T00:43:30.670Z,4.77
2017-07-17T00:45:58.184Z,3.63
2017-07-17T00:48:26.597Z,2.60
2017-07-17T00:50:54.101Z,3.10
2017-07-17T00:53:22.392Z,2.60
2017-07-17T00:55:50.129Z,2.33
2017-07-17T00:58:17.843Z,4.93
2017-07-17T01:00:45.456Z,2.63
2017-07-17T01:03:12.950Z,3.47
2017-07-17T01:05:40.448Z,3.13
2017-07-17T01:08:08.035Z,2.87
2017-07-17T01:10:35.528Z,6.20
2017-07-17T01:13:03.025Z,7.10
2017-07-17T01:15:30.555Z,2.47
2017-07-17T01:17:58.051Z,4.40
2017-07-17T01:20:25.544Z,4.80
2017-07-17T01:22:53.819Z,11.97
2017-07-17T01:25:22.093Z,2.80
2017-07-17T01:27:50.339Z,6.97
2017-07-17T01:30:18.639Z,4.83
2017-07-17T01:32:46.935Z,2.90
2017-07-17T01:35:14.435Z,3.53
2017-07-17T01:37:41.980Z,2.87
2017-07-17T01:40:09.493Z,3.83
2017-07-17T01:42:36.997Z,4.10
2017-07-17T01:45:04.523Z,3.50
2017-07-17T01:47:32.803Z,4.30
2017-07-17T01:50:01.075Z,3.80
2017-07-17T01:52:29.360Z,4.10
2017-07-17T01:54:56.935Z,3.90
2017-07-17T01:57:24.423Z,4.10
2017-07-17T01:59:52.031Z,5.23
2017-07-17T02:02:20.286Z,5.90
2017-07-17T02:04:47.793Z,8.57
2017-07-17T02:07:15.308Z,3.37
2017-07-17T02:09:42.915Z,2.60
2017-07-17T02:12:10.401Z,2.70
2017-07-17T02:14:38.861Z,4.40
2017-07-17T02:17:06.363Z,3.60
2017-07-17T02:19:33.984Z,3.03
2017-07-17T02:22:01.490Z,3.13
2017-07-17T02:24:29.341Z,6.30
2017-07-17T02:26:56.849Z,4.40
2017-07-17T02:29:24.419Z,5.10
2017-07-17T02:31:51.981Z,4.03
2017-07-17T02:34:19.484Z,6.10
2017-07-17T02:36:47.006Z,3.73
2017-07-17T02:39:14.521Z,3.53
2017-07-17T02:41:42.773Z,5.03
2017-07-17T02:44:10.324Z,3.40
2017-07-17T02:46:37.830Z,7.03
2017-07-17T02:49:05.327Z,9.23
2017-07-17T02:51:32.838Z,7.20
2017-07-17T02:54:01.113Z,4.83
2017-07-17T02:56:29.371Z,2.80
2017-07-17T02:58:56.957Z,4.23
2017-07-17T03:01:25.246Z,4.03
2017-07-17T03:03:52.764Z,5.30
2017-07-17T03:06:20.328Z,5.20
2017-07-17T03:08:47.828Z,3.30
2017-07-17T03:11:15.315Z,7.40
2017-07-17T03:13:42.848Z,2.83
2017-07-17T03:16:10.340Z,3.90
2017-07-17T03:18:37.846Z,3.50
2017-07-17T03:21:05.377Z,2.97
2017-07-17T03:23:55.733Z,9.13
2017-07-17T03:26:23.232Z,5.33
2017-07-17T03:28:50.724Z,6.50
2017-07-17T03:31:18.209Z,4.80
2017-07-17T03:33:45.729Z,9.43
2017-07-17T03:36:13.987Z,4.40
2017-07-17T03:38:41.485Z,8.00
2017-07-17T03:41:09.004Z,3.50
2017-07-17T03:43:36.504Z,4.87
2017-07-17T03:46:03.988Z,11.10
2017-07-17T03:48:31.494Z,3.30
2017-07-17T03:50:59.768Z,8.70
2017-07-17T03:53:28.073Z,4.00
2017-07-17T03:55:55.588Z,7.17
2017-07-17T03:58:23.884Z,3.77
2017-07-17T04:00:52.162Z,5.53
2017-07-17T04:03:20.747Z,4.67
2017-07-17T04:05:49.007Z,4.53
2017-07-17T04:08:16.511Z,7.60
2017-07-17T04:10:44.065Z,4.97
2017-07-17T04:13:11.639Z,4.53
2017-07-17T04:15:39.137Z,5.73
2017-07-17T04:18:06.642Z,3.97
2017-07-17T04:20:34.181Z,4.77
2017-07-17T04:23:01.652Z,5.70
2017-07-17T04:25:29.166Z,7.27
2017-07-17T04:27:56.699Z,4.83
2017-07-17T04:30:24.178Z,5.70
2017-07-17T04:32:51.727Z,6.77
2017-07-17T04:35:19.251Z,4.33
2017-07-17T04:37:46.750Z,8.10
2017-07-17T04:40:14.287Z,7.00
2017-07-17T04:42:41.845Z,8.30
2017-07-17T04:45:09.344Z,6.30
2017-07-17T04:47:36.945Z,7.23
2017-07-17T04:50:04.463Z,7.47
2017-07-17T04:52:31.974Z,6.43
2017-07-17T04:54:59.485Z,8.67
2017-07-17T04:57:27.009Z,7.13
2017-07-17T04:59:54.509Z,12.20
2017-07-17T05:02:22.022Z,9.60
2017-07-17T05:04:49.538Z,7.67
2017-07-17T05:07:17.803Z,8.50
2017-07-17T05:09:45.319Z,8.00
2017-07-17T05:12:12.856Z,10.17
2017-07-17T05:14:40.358Z,13.50
2017-07-17T05:17:07.873Z,11.30
2017-07-17T05:19:35.442Z,12.73
2017-07-17T05:22:03.007Z,16.53
2017-07-17T05:24:30.500Z,9.60
2017-07-17T05:26:57.990Z,11.90
2017-07-17T05:29:26.280Z,8.80
2017-07-17T05:31:53.826Z,9.50
2017-07-17T05:34:22.095Z,12.57
2017-07-17T05:36:50.359Z,15.60
2017-07-17T05:39:18.108Z,11.80
2017-07-17T05:41:45.622Z,10.47
2017-07-17T05:44:13.190Z,13.07
2017-07-17T05:46:40.760Z,11.60
2017-07-17T05:49:08.252Z,12.47
2017-07-17T05:51:35.771Z,10.20
2017-07-17T05:54:03.330Z,10.70
2017-07-17T05:56:30.876Z,10.00
2017-07-17T05:58:58.385Z,10.83
2017-07-17T06:01:25.937Z,10.10
2017-07-17T06:03:53.447Z,12.07
2017-07-17T06:06:20.973Z,12.73
2017-07-17T06:08:49.305Z,11.60
2017-07-17T06:11:16.804Z,10.73
2017-07-17T06:13:44.316Z,11.37
2017-07-17T06:16:11.907Z,10.43
2017-07-17T06:18:39.406Z,8.40
2017-07-17T06:21:07.715Z,9.90
2017-07-17T06:23:35.253Z,12.83
2017-07-17T06:26:03.532Z,14.60
2017-07-17T06:28:31.807Z,9.10
2017-07-17T06:31:06.123Z,10.33
2017-07-17T06:33:34.440Z,10.83
2017-07-17T06:36:01.936Z,8.20
2017-07-17T06:38:29.468Z,8.37
2017-07-17T06:40:56.977Z,8.57
2017-07-17T06:43:25.289Z,8.20
2017-07-17T06:45:52.831Z,6.73
2017-07-17T06:48:20.317Z,7.80
2017-07-17T06:50:47.806Z,7.17
2017-07-17T06:53:15.342Z,8.60
2017-07-17T06:55:42.889Z,7.00
2017-07-17T06:58:10.381Z,6.80
2017-07-17T07:00:37.894Z,5.77
2017-07-17T07:03:05.393Z,8.30
2017-07-17T07:05:32.879Z,11.33
2017-07-17T07:08:01.156Z,8.80
2017-07-17T07:10:29.414Z,6.90
2017-07-17T07:12:56.902Z,7.33
2017-07-17T07:15:25.190Z,7.47
2017-07-17T07:17:52.774Z,7.33
2017-07-17T07:20:20.290Z,7.97
2017-07-17T07:22:48.584Z,6.20
2017-07-17T07:25:16.211Z,9.20
2017-07-17T07:27:43.731Z,6.57
2017-07-17T07:30:11.568Z,5.63
2017-07-17T07:32:39.092Z,6.30
2017-07-17T07:35:06.617Z,7.77
2017-07-17T07:37:34.161Z,10.53
2017-07-17T07:40:01.692Z,5.07
2017-07-17T07:42:29.976Z,6.00
2017-07-17T07:44:58.211Z,6.00
2017-07-17T07:47:25.728Z,7.70
2017-07-17T07:49:53.382Z,5.33
2017-07-17T07:52:20.901Z,6.40
2017-07-17T07:54:48.384Z,5.87
2017-07-17T07:57:16.650Z,7.33
2017-07-17T07:59:44.153Z,5.93
2017-07-17T08:02:11.680Z,5.03
2017-07-17T08:04:39.998Z,5.23
2017-07-17T08:07:07.574Z,5.87
2017-07-17T08:09:35.077Z,4.70
2017-07-17T08:12:03.361Z,5.00
2017-07-17T08:14:31.128Z,4.27
2017-07-17T08:16:58.625Z,4.30
2017-07-17T08:19:26.115Z,5.23
2017-07-17T08:21:53.655Z,3.67
2017-07-17T08:24:21.189Z,3.63
2017-07-17T08:26:48.963Z,5.10
2017-07-17T08:29:17.392Z,4.83
2017-07-17T08:31:44.928Z,3.97
2017-07-17T08:34:12.419Z,4.50
2017-07-17T08:36:40.702Z,14.07
2017-07-17T08:39:09.014Z,13.97
2017-07-17T08:41:36.570Z,15.83
2017-07-17T08:44:04.120Z,14.07
2017-07-17T08:46:31.682Z,11.47
2017-07-17T08:48:59.252Z,11.17
2017-07-17T08:51:26.861Z,11.83
2017-07-17T08:53:54.356Z,13.23
2017-07-17T08:56:21.887Z,13.70
2017-07-17T08:58:50.209Z,14.90
2017-07-17T09:01:17.845Z,13.47
2017-07-17T09:03:45.422Z,15.23
2017-07-17T09:06:12.960Z,13.43
2017-07-17T09:08:40.450Z,14.70
2017-07-17T09:11:07.998Z,11.77
2017-07-17T09:13:35.519Z,13.63
2017-07-17T09:16:03.772Z,10.93
2017-07-17T09:18:31.265Z,11.03
2017-07-17T09:20:59.884Z,13.33
2017-07-17T09:23:27.421Z,11.93
2017-07-17T09:25:54.912Z,11.53
2017-07-17T09:28:22.445Z,14.77
2017-07-17T09:30:50.221Z,14.37
2017-07-17T09:33:17.745Z,12.40
2017-07-17T09:35:46.031Z,12.03
2017-07-17T09:38:13.535Z,15.97
2017-07-17T09:40:42.061Z,15.63
2017-07-17T09:43:10.346Z,10.43
2017-07-17T09:45:39.523Z,10.77
2017-07-17T09:48:07.019Z,16.73
2017-07-17T09:50:34.552Z,11.43
2017-07-17T09:53:02.806Z,9.90
2017-07-17T09:55:30.318Z,11.70
2017-07-17T09:57:58.707Z,10.17
2017-07-17T10:00:26.266Z,11.13
2017-07-17T10:02:53.805Z,14.00
2017-07-17T10:05:21.324Z,9.23
2017-07-17T10:07:48.826Z,9.73
2017-07-17T10:10:16.404Z,8.37
2017-07-17T10:12:44.245Z,9.77
2017-07-17T10:15:11.798Z,9.60
2017-07-17T10:17:39.278Z,9.40
2017-07-17T10:20:06.805Z,8.20
2017-07-17T10:22:35.085Z,7.47
2017-07-17T10:25:02.669Z,6.80
2017-07-17T10:27:30.190Z,8.10
2017-07-17T10:29:57.700Z,11.50
2017-07-17T10:32:25.189Z,11.10
2017-07-17T10:34:52.704Z,5.57
2017-07-17T10:37:20.193Z,5.83
2017-07-17T10:39:47.709Z,9.23
2017-07-17T10:42:17.125Z,5.33
2017-07-17T10:44:44.668Z,3.57
2017-07-17T10:47:12.933Z,3.07
2017-07-17T10:55:17.660Z,4.07
2017-07-17T10:57:45.191Z,4.00
2017-07-17T11:00:12.670Z,5.27
2017-07-17T11:02:40.805Z,4.30
2017-07-17T11:05:09.084Z,5.00
2017-07-17T11:07:37.345Z,4.63
2017-07-17T11:10:05.622Z,5.80
2017-07-17T11:12:34.029Z,6.30
2017-07-17T11:15:01.543Z,7.93
2017-07-17T11:17:29.032Z,5.53
2017-07-17T11:19:57.317Z,4.07
2017-07-17T11:22:25.575Z,5.70
2017-07-17T11:24:54.150Z,5.80
2017-07-17T11:27:22.445Z,4.90
2017-07-17T11:29:50.693Z,4.63
2017-07-17T11:32:18.192Z,8.13
2017-07-17T11:34:45.702Z,8.60
2017-07-17T11:37:13.187Z,4.47
2017-07-17T11:39:41.459Z,3.33
2017-07-17T11:42:08.992Z,2.67
2017-07-17T11:44:36.488Z,2.90
2017-07-17T11:57:16.381Z,3.47
2017-07-17T11:59:43.923Z,4.60
2017-07-17T12:02:11.423Z,4.00
2017-07-17T12:04:39.754Z,3.13
2017-07-17T12:07:07.291Z,3.63
2017-07-17T12:09:34.823Z,4.17
2017-07-17T12:12:03.134Z,5.27
2017-07-17T12:14:30.648Z,4.50
2017-07-17T12:16:58.143Z,5.83
2017-07-17T12:19:25.675Z,8.17
2017-07-17T12:21:53.988Z,3.60
2017-07-17T12:24:22.126Z,3.93
2017-07-17T12:26:50.402Z,5.37
2017-07-17T12:29:18.692Z,6.83
2017-07-17T12:31:46.192Z,5.87
2017-07-17T12:34:13.678Z,5.03
2017-07-17T12:36:41.190Z,4.73
2017-07-17T12:39:08.681Z,6.20
2017-07-17T12:41:36.205Z,5.20
2017-07-17T12:44:03.738Z,5.23
2017-07-17T12:46:31.979Z,5.70
2017-07-17T12:48:59.495Z,5.13
2017-07-17T12:51:26.991Z,5.53
2017-07-17T12:53:55.210Z,4.90
2017-07-17T12:56:23.499Z,4.40
2017-07-17T12:58:51.087Z,4.23
2017-07-17T13:01:19.691Z,5.10
2017-07-17T13:03:47.195Z,5.20
2017-07-17T13:06:14.770Z,4.60
2017-07-17T13:08:42.292Z,3.67
2017-07-17T13:11:09.884Z,3.80
2017-07-17T13:13:37.421Z,4.13
2017-07-17T13:16:05.667Z,6.50
2017-07-17T13:18:33.195Z,3.10
2017-07-17T13:21:00.840Z,3.83
2017-07-17T13:23:28.412Z,3.23
2017-07-17T13:25:55.913Z,4.47
2017-07-17T13:28:23.421Z,4.90
2017-07-17T13:30:50.935Z,5.27
2017-07-17T13:33:18.452Z,7.60
2017-07-17T13:35:45.988Z,6.43
2017-07-17T13:38:13.485Z,5.67
2017-07-17T13:40:40.996Z,5.30
2017-07-17T13:43:09.284Z,4.80
2017-07-17T13:45:36.874Z,5.03
2017-07-17T13:48:04.410Z,4.60
2017-07-17T13:50:31.972Z,5.43
2017-07-17T13:52:59.470Z,4.50
2017-07-17T13:55:27.117Z,4.33
2017-07-17T13:57:54.627Z,4.27
2017-07-17T14:00:22.897Z,4.87
2017-07-17T14:02:50.488Z,5.27
2017-07-17T14:05:18.064Z,4.70
2017-07-17T14:07:45.562Z,4.50
2017-07-17T14:10:13.092Z,3.70
2017-07-17T14:12:40.673Z,4.40
2017-07-17T14:15:08.173Z,4.10
2017-07-17T14:17:36.454Z,4.33
2017-07-17T14:20:04.058Z,3.20
2017-07-17T14:22:31.576Z,4.40
2017-07-17T14:24:59.109Z,4.50
2017-07-17T14:27:26.615Z,4.17
2017-07-17T14:29:54.118Z,7.63
2017-07-17T14:32:21.726Z,5.47
2017-07-17T14:34:49.253Z,5.13
2017-07-17T14:37:17.507Z,4.90
2017-07-17T14:39:45.001Z,4.70
2017-07-17T14:42:13.335Z,5.23
2017-07-17T14:44:40.849Z,5.43
2017-07-17T14:47:08.453Z,5.03
2017-07-17T14:49:36.067Z,6.00
2017-07-17T14:52:04.918Z,5.10
2017-07-17T14:54:33.237Z,6.30
2017-07-17T14:57:00.738Z,7.90
2017-07-17T14:59:28.265Z,5.90
2017-07-17T15:01:55.767Z,6.57
2017-07-17T15:04:23.290Z,6.63
2017-07-17T15:06:50.812Z,17.70
2017-07-17T15:09:19.073Z,8.73
2017-07-17T15:11:46.600Z,6.20
2017-07-17T15:14:14.117Z,5.77
2017-07-17T15:16:42.389Z,6.43
2017-07-17T15:19:10.642Z,5.77
2017-07-17T15:21:38.156Z,5.33
2017-07-17T15:24:05.656Z,16.40
2017-07-17T15:26:33.142Z,7.07
2017-07-17T15:29:00.754Z,6.00
2017-07-17T15:31:28.252Z,5.17
2017-07-17T15:33:55.749Z,6.10
2017-07-17T15:36:23.285Z,4.77
2017-07-17T15:38:50.793Z,6.13
2017-07-17T15:41:18.267Z,6.43
2017-07-17T15:43:45.810Z,7.80
2017-07-17T15:46:13.314Z,7.70
2017-07-17T15:48:41.586Z,10.03
2017-07-17T15:51:09.885Z,7.93
2017-07-17T15:53:37.422Z,7.20
2017-07-17T15:56:05.683Z,6.80
2017-07-17T15:58:33.210Z,8.83
2017-07-17T16:01:00.725Z,7.97
2017-07-17T16:03:29.003Z,7.63
2017-07-17T16:05:58.040Z,8.60
2017-07-17T16:08:25.594Z,9.77
2017-07-17T16:10:53.138Z,9.50
2017-07-17T16:13:20.651Z,11.23
2017-07-17T16:15:48.226Z,14.37
2017-07-17T16:18:16.555Z,10.03
2017-07-17T16:20:44.107Z,9.60
2017-07-17T16:23:11.622Z,12.37
2017-07-17T16:25:39.122Z,8.90
2017-07-17T16:28:06.660Z,10.83
2017-07-17T16:30:35.054Z,9.60
2017-07-17T16:33:02.579Z,9.50
2017-07-17T16:35:30.858Z,11.03
2017-07-17T16:37:59.120Z,9.33
2017-07-17T16:40:26.744Z,9.40
2017-07-17T16:42:54.265Z,9.03
2017-07-17T16:45:22.534Z,10.03
2017-07-17T16:47:50.812Z,10.10
2017-07-17T16:50:19.128Z,10.17
2017-07-17T16:52:46.646Z,11.17
2017-07-17T16:55:14.946Z,12.27
2017-07-17T16:57:42.481Z,16.10
2017-07-17T17:00:10.060Z,12.27
2017-07-17T17:02:37.544Z,13.10
2017-07-17T17:05:05.085Z,10.70
2017-07-17T17:07:32.582Z,14.37
2017-07-17T17:10:00.098Z,11.77
2017-07-17T17:12:28.378Z,14.27
2017-07-17T17:14:55.927Z,12.90
2017-07-17T17:17:24.213Z,14.53
2017-07-17T17:19:51.753Z,12.73
2017-07-17T17:22:20.040Z,14.07
2017-07-17T17:24:48.387Z,14.07
2017-07-17T17:27:16.722Z,17.70
2017-07-17T17:29:44.224Z,18.00
2017-07-17T17:32:11.734Z,17.00
2017-07-17T17:34:39.489Z,17.50
2017-07-17T17:37:09.414Z,17.13
2017-07-17T17:39:36.965Z,17.77
2017-07-17T17:42:04.516Z,17.83
2017-07-17T17:44:32.785Z,17.13
2017-07-17T17:47:01.076Z,15.50
2017-07-17T17:49:28.620Z,16.13
2017-07-17T17:51:56.903Z,18.03
2017-07-17T17:54:25.180Z,15.80
2017-07-17T17:56:53.476Z,17.53
2017-07-17T17:59:21.020Z,17.23
2017-07-17T18:01:49.306Z,18.00
2017-07-17T18:04:16.827Z,18.47
2017-07-17T18:06:44.334Z,18.10
2017-07-17T18:09:11.908Z,18.63
2017-07-17T18:11:39.483Z,19.27
2017-07-17T18:14:07.075Z,17.83
2017-07-17T18:16:34.672Z,19.03
2017-07-17T18:19:02.338Z,19.00
2017-07-17T18:24:22.577Z,16.17
2017-07-17T18:26:52.012Z,18.60
2017-07-17T18:29:43.205Z,14.50
2017-07-17T18:32:10.720Z,15.00
2017-07-17T18:43:09.829Z,13.77
2017-07-17T18:45:37.373Z,13.70
2017-07-17T18:48:04.895Z,12.43
2017-07-17T18:50:32.401Z,11.70
2017-07-17T18:52:59.932Z,11.53
2017-07-17T18:55:27.435Z,12.27
2017-07-17T18:57:54.925Z,10.20
2017-07-17T19:00:22.712Z,11.47
2017-07-17T19:02:50.238Z,16.47
2017-07-17T19:05:17.739Z,12.00
2017-07-17T19:07:45.285Z,16.83
2017-07-17T19:10:12.789Z,12.10
2017-07-17T19:12:40.352Z,10.67
2017-07-17T19:15:07.950Z,12.80
2017-07-17T19:17:35.457Z,14.43
2017-07-17T19:20:02.958Z,14.30
2017-07-17T19:22:31.332Z,9.80
2017-07-17T19:24:58.883Z,9.80
2017-07-17T19:27:26.385Z,11.17
2017-07-17T19:29:53.910Z,10.70
2017-07-17T19:32:22.212Z,13.40
2017-07-17T19:34:49.735Z,12.30
2017-07-17T19:37:18.143Z,11.73
2017-07-17T19:39:45.637Z,10.37
2017-07-17T19:42:13.176Z,12.67
2017-07-17T19:44:40.724Z,10.60
2017-07-17T19:47:08.280Z,18.00
2017-07-17T19:49:35.803Z,11.37
2017-07-17T19:52:03.299Z,13.40
2017-07-17T19:54:30.853Z,13.80
2017-07-17T19:56:58.433Z,14.50
2017-07-17T19:59:25.958Z,12.50
2017-07-17T20:01:53.457Z,14.20
2017-07-17T20:04:21.010Z,10.33
2017-07-17T20:06:48.498Z,15.30
2017-07-17T20:09:16.028Z,11.83
2017-07-17T20:11:43.677Z,13.10
2017-07-17T20:14:11.194Z,13.80
2017-07-17T20:16:38.696Z,11.50
2017-07-17T20:19:06.251Z,14.23
2017-07-17T20:21:33.779Z,12.50
2017-07-17T20:24:01.295Z,11.97
2017-07-17T20:26:29.029Z,13.20
2017-07-17T20:28:56.553Z,12.60
2017-07-17T20:31:24.176Z,11.23
2017-07-17T20:33:51.689Z,11.60
2017-07-17T20:36:19.968Z,10.27
2017-07-17T20:38:48.275Z,11.43
2017-07-17T20:41:15.843Z,9.40
2017-07-17T20:43:43.376Z,12.23
2017-07-17T20:46:11.639Z,11.10
2017-07-17T20:48:39.968Z,10.83
2017-07-17T20:51:07.490Z,10.30
2017-07-17T20:53:35.758Z,10.80
2017-07-17T20:56:04.065Z,14.87
2017-07-17T20:58:31.576Z,17.70
2017-07-17T21:00:59.143Z,15.40
2017-07-17T21:03:27.433Z,17.23
2017-07-17T21:05:55.740Z,16.73
2017-07-17T21:08:23.263Z,17.20
2017-07-17T21:10:50.812Z,21.27
2017-07-17T21:13:18.351Z,18.27
2017-07-17T21:15:45.889Z,17.60
2017-07-17T21:18:13.386Z,21.50
2017-07-17T21:20:41.676Z,17.43
2017-07-17T21:23:09.986Z,19.20
2017-07-17T21:25:37.502Z,20.17
2017-07-17T21:28:05.018Z,21.97
2017-07-17T21:30:32.541Z,22.00
2017-07-17T21:33:00.811Z,18.93
2017-07-17T21:35:29.091Z,17.53
2017-07-17T21:37:57.877Z,26.77
2017-07-17T21:40:26.203Z,26.53
2017-07-17T21:42:53.754Z,22.40
2017-07-17T21:45:21.274Z,23.13
2017-07-17T21:47:49.561Z,21.60
2017-07-17T21:50:17.837Z,20.70
2017-07-17T21:52:46.134Z,26.90
2017-07-17T21:55:13.637Z,25.00
2017-07-17T21:57:41.169Z,30.90
2017-07-17T22:00:08.694Z,32.17
2017-07-17T22:02:37.051Z,34.40
2017-07-17T22:05:05.328Z,39.47
2017-07-17T22:07:33.618Z,29.13
2017-07-17T22:10:01.929Z,35.23
2017-07-17T22:12:29.462Z,36.87
2017-07-17T22:14:57.764Z,33.43
2017-07-17T22:17:25.265Z,38.67
2017-07-17T22:19:52.789Z,40.73
2017-07-17T22:22:20.350Z,39.07
2017-07-17T22:24:47.855Z,40.60
2017-07-17T22:27:15.431Z,41.40
2017-07-17T22:29:43.742Z,38.63
2017-07-17T22:32:11.259Z,40.00
2017-07-17T22:34:38.750Z,36.73
2017-07-17T22:37:06.317Z,35.80
2017-07-17T22:39:33.866Z,38.50
2017-07-17T22:42:01.372Z,34.53
2017-07-17T22:44:28.967Z,34.20
2017-07-17T22:46:57.230Z,34.07
2017-07-17T22:49:25.511Z,29.57
2017-07-17T22:51:53.040Z,36.87
2017-07-17T22:54:20.570Z,31.13
2017-07-17T22:56:48.129Z,31.10
2017-07-17T22:59:15.665Z,38.00
2017-07-17T23:01:43.168Z,33.57
2017-07-17T23:04:10.687Z,41.47
2017-07-17T23:06:38.184Z,41.40
2017-07-17T23:09:05.713Z,43.20
2017-07-17T23:11:33.287Z,37.30
2017-07-17T23:14:00.826Z,36.97
2017-07-17T23:16:28.342Z,38.10
2017-07-17T23:18:55.874Z,39.60
2017-07-17T23:21:23.401Z,38.63
2017-07-17T23:23:51.617Z,32.90
2017-07-17T23:26:19.121Z,30.07
2017-07-17T23:28:47.429Z,35.70
2017-07-17T23:31:15.395Z,34.70
2017-07-17T23:33:42.922Z,27.77
2017-07-17T23:36:11.222Z,27.83
2017-07-17T23:38:38.749Z,28.40
2017-07-17T23:41:06.246Z,32.47
2017-07-17T23:43:33.786Z,34.10
2017-07-17T23:46:02.060Z,27.03
2017-07-17T23:48:30.325Z,32.43
2017-07-17T23:50:57.858Z,29.90
2017-07-17T23:53:26.407Z,27.83
2017-07-17T23:55:53.905Z,32.70
2017-07-17T23:58:21.440Z,30.40
